sensor_id;sensor_type;location;lat;lon;timestamp;P1;durP1;ratioP1;P2;durP2;ratioP2
3329;SDS011;1677;49.576;10.990;2022-07-11T00:00:00;1.80;;;1.07;;
3329;SDS011;1677;49.576;10.990;2022-07-11T00:02:26;1.53;;;1.10;;
3329;SDS011;1677;49.576;10.990;2022-07-11T00:04:51;1.57;;;1.37;;
3329;SDS011;1677;49.576;10.990;2022-07-11T00:07:17;1.73;;;0.90;;
3329;SDS011;1677;49.576;10.990;2022-07-11T00:09:43;1.37;;;1.10;;
3329;SDS011;1677;49.576;10.990;2022-07-11T00:12:09;1.83;;;1.00;;
3329;SDS011;1677;49.576;10.990;2022-07-11T00:14:36;3.50;;;1.20;;
3329;SDS011;1677;49.576;10.990;2022-07-11T00:17:04;1.93;;;1.20;;
3329;SDS011;1677;49.576;10.990;2022-07-11T00:19:31;2.53;;;1.13;;
3329;SDS011;1677;49.576;10.990;2022-07-11T00:21:57;1.07;;;0.97;;
3329;SDS011;1677;49.576;10.990;2022-07-11T00:24:22;2.20;;;1.10;;
3329;SDS011;1677;49.576;10.990;2022-07-11T00:26:49;2.70;;;1.17;;
3329;SDS011;1677;49.576;10.990;2022-07-11T00:29:15;2.57;;;1.00;;
3329;SDS011;1677;49.576;10.990;2022-07-11T00:31:41;1.00;;;0.87;;
3329;SDS011;1677;49.576;10.990;2022-07-11T00:34:07;1.90;;;1.00;;
3329;SDS011;1677;49.576;10.990;2022-07-11T00:36:33;1.10;;;0.90;;
3329;SDS011;1677;49.576;10.990;2022-07-11T00:38:59;2.67;;;1.10;;
3329;SDS011;1677;49.576;10.990;2022-07-11T00:41:24;2.40;;;1.10;;
3329;SDS011;1677;49.576;10.990;2022-07-11T00:43:51;2.87;;;1.10;;
3329;SDS011;1677;49.576;10.990;2022-07-11T00:46:19;2.20;;;1.03;;
3329;SDS011;1677;49.576;10.990;2022-07-11T00:48:45;1.20;;;1.10;;
3329;SDS011;1677;49.576;10.990;2022-07-11T00:51:10;1.10;;;1.00;;
3329;SDS011;1677;49.576;10.990;2022-07-11T00:53:37;2.20;;;1.17;;
3329;SDS011;1677;49.576;10.990;2022-07-11T00:56:04;3.30;;;1.10;;
3329;SDS011;1677;49.576;10.990;2022-07-11T00:58:31;4.97;;;1.33;;
3329;SDS011;1677;49.576;10.990;2022-07-11T01:00:56;1.90;;;1.10;;
3329;SDS011;1677;49.576;10.990;2022-07-11T01:03:22;1.30;;;1.10;;
3329;SDS011;1677;49.576;10.990;2022-07-11T01:05:48;1.20;;;0.90;;
3329;SDS011;1677;49.576;10.990;2022-07-11T01:08:13;2.05;;;1.20;;
3329;SDS011;1677;49.576;10.990;2022-07-11T01:10:39;1.40;;;0.70;;
3329;SDS011;1677;49.576;10.990;2022-07-11T01:13:05;1.60;;;1.00;;
3329;SDS011;1677;49.576;10.990;2022-07-11T01:15:33;2.53;;;0.83;;
3329;SDS011;1677;49.576;10.990;2022-07-11T01:18:00;2.20;;;1.05;;
3329;SDS011;1677;49.576;10.990;2022-07-11T01:20:26;1.10;;;1.00;;
3329;SDS011;1677;49.576;10.990;2022-07-11T01:22:52;1.77;;;1.00;;
3329;SDS011;1677;49.576;10.990;2022-07-11T01:25:19;4.10;;;1.03;;
3329;SDS011;1677;49.576;10.990;2022-07-11T01:30:24;0.90;;;0.80;;
3329;SDS011;1677;49.576;10.990;2022-07-11T01:32:51;2.33;;;1.00;;
3329;SDS011;1677;49.576;10.990;2022-07-11T01:35:17;2.30;;;1.10;;
3329;SDS011;1677;49.576;10.990;2022-07-11T01:37:43;2.27;;;1.07;;
3329;SDS011;1677;49.576;10.990;2022-07-11T01:40:09;1.93;;;1.00;;
3329;SDS011;1677;49.576;10.990;2022-07-11T01:42:35;1.00;;;0.80;;
3329;SDS011;1677;49.576;10.990;2022-07-11T01:45:00;1.50;;;1.37;;
3329;SDS011;1677;49.576;10.990;2022-07-11T01:47:26;1.87;;;1.00;;
3329;SDS011;1677;49.576;10.990;2022-07-11T01:49:51;1.30;;;0.90;;
3329;SDS011;1677;49.576;10.990;2022-07-11T01:52:17;3.03;;;1.70;;
3329;SDS011;1677;49.576;10.990;2022-07-11T01:54:43;1.30;;;1.00;;
3329;SDS011;1677;49.576;10.990;2022-07-11T01:57:08;2.97;;;1.00;;
3329;SDS011;1677;49.576;10.990;2022-07-11T01:59:35;1.70;;;1.10;;
3329;SDS011;1677;49.576;10.990;2022-07-11T02:02:01;2.70;;;1.42;;
3329;SDS011;1677;49.576;10.990;2022-07-11T02:04:27;1.43;;;1.03;;
3329;SDS011;1677;49.576;10.990;2022-07-11T02:06:52;1.87;;;1.00;;
3329;SDS011;1677;49.576;10.990;2022-07-11T02:09:18;2.10;;;1.07;;
3329;SDS011;1677;49.576;10.990;2022-07-11T02:11:44;5.77;;;1.10;;
3329;SDS011;1677;49.576;10.990;2022-07-11T02:14:09;1.33;;;1.20;;
3329;SDS011;1677;49.576;10.990;2022-07-11T02:16:35;1.63;;;1.07;;
3329;SDS011;1677;49.576;10.990;2022-07-11T02:19:00;2.20;;;1.13;;
3329;SDS011;1677;49.576;10.990;2022-07-11T02:21:26;1.17;;;1.00;;
3329;SDS011;1677;49.576;10.990;2022-07-11T02:23:52;3.80;;;1.10;;
3329;SDS011;1677;49.576;10.990;2022-07-11T02:26:17;3.30;;;1.43;;
3329;SDS011;1677;49.576;10.990;2022-07-11T02:28:43;4.30;;;1.10;;
3329;SDS011;1677;49.576;10.990;2022-07-11T02:31:09;1.57;;;1.10;;
3329;SDS011;1677;49.576;10.990;2022-07-11T02:33:35;2.80;;;1.20;;
3329;SDS011;1677;49.576;10.990;2022-07-11T02:36:00;2.30;;;1.37;;
3329;SDS011;1677;49.576;10.990;2022-07-11T02:38:26;2.23;;;1.50;;
3329;SDS011;1677;49.576;10.990;2022-07-11T02:40:52;2.80;;;1.00;;
3329;SDS011;1677;49.576;10.990;2022-07-11T02:43:18;1.30;;;1.10;;
3329;SDS011;1677;49.576;10.990;2022-07-11T02:45:44;4.30;;;1.45;;
3329;SDS011;1677;49.576;10.990;2022-07-11T02:48:09;1.80;;;0.90;;
3329;SDS011;1677;49.576;10.990;2022-07-11T02:50:35;1.70;;;1.17;;
3329;SDS011;1677;49.576;10.990;2022-07-11T02:53:01;1.50;;;1.30;;
3329;SDS011;1677;49.576;10.990;2022-07-11T02:55:26;3.13;;;1.20;;
3329;SDS011;1677;49.576;10.990;2022-07-11T02:57:52;1.53;;;1.10;;
3329;SDS011;1677;49.576;10.990;2022-07-11T03:00:18;2.70;;;1.37;;
3329;SDS011;1677;49.576;10.990;2022-07-11T03:02:44;2.73;;;1.80;;
3329;SDS011;1677;49.576;10.990;2022-07-11T03:05:10;2.03;;;0.90;;
3329;SDS011;1677;49.576;10.990;2022-07-11T03:07:36;3.60;;;1.43;;
3329;SDS011;1677;49.576;10.990;2022-07-11T03:10:02;3.67;;;1.10;;
3329;SDS011;1677;49.576;10.990;2022-07-11T03:12:28;1.10;;;1.00;;
3329;SDS011;1677;49.576;10.990;2022-07-11T03:14:53;1.77;;;1.20;;
3329;SDS011;1677;49.576;10.990;2022-07-11T03:17:19;1.43;;;1.10;;
3329;SDS011;1677;49.576;10.990;2022-07-11T03:19:45;2.03;;;1.20;;
3329;SDS011;1677;49.576;10.990;2022-07-11T03:22:11;1.73;;;1.10;;
3329;SDS011;1677;49.576;10.990;2022-07-11T03:24:37;2.40;;;1.17;;
3329;SDS011;1677;49.576;10.990;2022-07-11T03:27:04;1.73;;;1.10;;
3329;SDS011;1677;49.576;10.990;2022-07-11T03:29:30;1.67;;;1.10;;
3329;SDS011;1677;49.576;10.990;2022-07-11T03:31:55;2.30;;;1.20;;
3329;SDS011;1677;49.576;10.990;2022-07-11T03:34:21;2.77;;;1.00;;
3329;SDS011;1677;49.576;10.990;2022-07-11T03:36:46;1.43;;;1.10;;
3329;SDS011;1677;49.576;10.990;2022-07-11T03:39:13;1.77;;;1.37;;
3329;SDS011;1677;49.576;10.990;2022-07-11T03:41:39;1.50;;;1.40;;
3329;SDS011;1677;49.576;10.990;2022-07-11T03:44:04;1.40;;;1.20;;
3329;SDS011;1677;49.576;10.990;2022-07-11T03:46:30;1.50;;;1.40;;
3329;SDS011;1677;49.576;10.990;2022-07-11T03:48:55;3.17;;;1.50;;
3329;SDS011;1677;49.576;10.990;2022-07-11T03:51:21;7.93;;;1.60;;
3329;SDS011;1677;49.576;10.990;2022-07-11T03:53:46;2.93;;;1.20;;
3329;SDS011;1677;49.576;10.990;2022-07-11T03:56:13;2.63;;;1.50;;
3329;SDS011;1677;49.576;10.990;2022-07-11T03:58:41;3.40;;;1.23;;
3329;SDS011;1677;49.576;10.990;2022-07-11T04:01:07;4.13;;;1.90;;
3329;SDS011;1677;49.576;10.990;2022-07-11T04:03:33;2.13;;;1.30;;
3329;SDS011;1677;49.576;10.990;2022-07-11T04:05:58;3.10;;;1.50;;
3329;SDS011;1677;49.576;10.990;2022-07-11T04:08:24;3.30;;;1.80;;
3329;SDS011;1677;49.576;10.990;2022-07-11T04:10:49;2.13;;;1.20;;
3329;SDS011;1677;49.576;10.990;2022-07-11T04:13:15;1.53;;;1.37;;
3329;SDS011;1677;49.576;10.990;2022-07-11T04:15:41;1.98;;;1.40;;
3329;SDS011;1677;49.576;10.990;2022-07-11T04:18:06;2.10;;;1.20;;
3329;SDS011;1677;49.576;10.990;2022-07-11T04:20:32;1.80;;;1.27;;
3329;SDS011;1677;49.576;10.990;2022-07-11T04:22:57;2.27;;;1.30;;
3329;SDS011;1677;49.576;10.990;2022-07-11T04:25:23;2.07;;;1.60;;
3329;SDS011;1677;49.576;10.990;2022-07-11T04:27:49;2.80;;;1.40;;
3329;SDS011;1677;49.576;10.990;2022-07-11T04:30:15;2.33;;;1.30;;
3329;SDS011;1677;49.576;10.990;2022-07-11T04:32:40;2.07;;;1.30;;
3329;SDS011;1677;49.576;10.990;2022-07-11T04:35:06;2.67;;;1.33;;
3329;SDS011;1677;49.576;10.990;2022-07-11T04:37:32;1.27;;;1.10;;
3329;SDS011;1677;49.576;10.990;2022-07-11T04:39:57;2.30;;;1.50;;
3329;SDS011;1677;49.576;10.990;2022-07-11T04:42:23;2.93;;;1.37;;
3329;SDS011;1677;49.576;10.990;2022-07-11T04:44:48;2.00;;;1.77;;
3329;SDS011;1677;49.576;10.990;2022-07-11T04:47:14;3.07;;;1.30;;
3329;SDS011;1677;49.576;10.990;2022-07-11T04:49:39;2.60;;;1.43;;
3329;SDS011;1677;49.576;10.990;2022-07-11T04:52:05;2.53;;;1.40;;
3329;SDS011;1677;49.576;10.990;2022-07-11T04:54:32;1.97;;;1.60;;
3329;SDS011;1677;49.576;10.990;2022-07-11T04:56:58;2.40;;;1.60;;
3329;SDS011;1677;49.576;10.990;2022-07-11T04:59:23;2.67;;;1.60;;
3329;SDS011;1677;49.576;10.990;2022-07-11T05:01:49;1.90;;;1.50;;
3329;SDS011;1677;49.576;10.990;2022-07-11T05:04:15;1.40;;;1.30;;
3329;SDS011;1677;49.576;10.990;2022-07-11T05:06:41;1.70;;;1.57;;
3329;SDS011;1677;49.576;10.990;2022-07-11T05:09:07;2.37;;;1.70;;
3329;SDS011;1677;49.576;10.990;2022-07-11T05:11:33;2.50;;;1.73;;
3329;SDS011;1677;49.576;10.990;2022-07-11T05:13:59;3.27;;;1.87;;
3329;SDS011;1677;49.576;10.990;2022-07-11T05:16:25;2.40;;;1.40;;
3329;SDS011;1677;49.576;10.990;2022-07-11T05:18:51;1.93;;;1.60;;
3329;SDS011;1677;49.576;10.990;2022-07-11T05:21:16;2.00;;;1.63;;
3329;SDS011;1677;49.576;10.990;2022-07-11T05:23:47;2.50;;;1.77;;
3329;SDS011;1677;49.576;10.990;2022-07-11T05:26:12;4.90;;;1.63;;
3329;SDS011;1677;49.576;10.990;2022-07-11T05:28:39;1.40;;;1.30;;
3329;SDS011;1677;49.576;10.990;2022-07-11T05:31:05;1.60;;;1.50;;
3329;SDS011;1677;49.576;10.990;2022-07-11T05:33:31;3.37;;;1.70;;
3329;SDS011;1677;49.576;10.990;2022-07-11T05:35:56;1.83;;;1.47;;
3329;SDS011;1677;49.576;10.990;2022-07-11T05:38:22;1.63;;;1.53;;
3329;SDS011;1677;49.576;10.990;2022-07-11T05:40:47;1.90;;;1.73;;
3329;SDS011;1677;49.576;10.990;2022-07-11T05:43:13;2.30;;;1.43;;
3329;SDS011;1677;49.576;10.990;2022-07-11T05:45:38;3.17;;;1.77;;
3329;SDS011;1677;49.576;10.990;2022-07-11T05:48:04;2.17;;;1.80;;
3329;SDS011;1677;49.576;10.990;2022-07-11T05:50:30;2.33;;;1.53;;
3329;SDS011;1677;49.576;10.990;2022-07-11T05:52:55;2.70;;;1.83;;
3329;SDS011;1677;49.576;10.990;2022-07-11T05:55:22;1.83;;;1.63;;
3329;SDS011;1677;49.576;10.990;2022-07-11T05:57:48;1.87;;;1.60;;
3329;SDS011;1677;49.576;10.990;2022-07-11T06:00:14;2.90;;;1.70;;
3329;SDS011;1677;49.576;10.990;2022-07-11T06:02:40;4.40;;;1.77;;
3329;SDS011;1677;49.576;10.990;2022-07-11T06:05:07;3.00;;;1.60;;
3329;SDS011;1677;49.576;10.990;2022-07-11T06:07:33;1.97;;;1.77;;
3329;SDS011;1677;49.576;10.990;2022-07-11T06:10:17;1.90;;;1.70;;
3329;SDS011;1677;49.576;10.990;2022-07-11T06:12:43;3.73;;;1.67;;
3329;SDS011;1677;49.576;10.990;2022-07-11T06:15:09;1.90;;;1.60;;
3329;SDS011;1677;49.576;10.990;2022-07-11T06:17:34;1.87;;;1.70;;
3329;SDS011;1677;49.576;10.990;2022-07-11T06:20:00;1.73;;;1.57;;
3329;SDS011;1677;49.576;10.990;2022-07-11T06:22:26;2.40;;;1.57;;
3329;SDS011;1677;49.576;10.990;2022-07-11T06:24:52;1.47;;;1.37;;
3329;SDS011;1677;49.576;10.990;2022-07-11T06:27:17;2.03;;;1.50;;
3329;SDS011;1677;49.576;10.990;2022-07-11T06:29:43;1.67;;;1.50;;
3329;SDS011;1677;49.576;10.990;2022-07-11T06:32:09;1.60;;;1.30;;
3329;SDS011;1677;49.576;10.990;2022-07-11T06:34:34;1.80;;;1.70;;
3329;SDS011;1677;49.576;10.990;2022-07-11T06:37:02;2.50;;;1.43;;
3329;SDS011;1677;49.576;10.990;2022-07-11T06:39:28;1.30;;;1.17;;
3329;SDS011;1677;49.576;10.990;2022-07-11T06:41:53;1.80;;;1.30;;
3329;SDS011;1677;49.576;10.990;2022-07-11T06:44:19;1.50;;;1.17;;
3329;SDS011;1677;49.576;10.990;2022-07-11T06:46:44;1.40;;;1.30;;
3329;SDS011;1677;49.576;10.990;2022-07-11T06:49:10;5.03;;;1.40;;
3329;SDS011;1677;49.576;10.990;2022-07-11T06:51:38;3.70;;;1.23;;
3329;SDS011;1677;49.576;10.990;2022-07-11T06:54:03;1.27;;;1.17;;
3329;SDS011;1677;49.576;10.990;2022-07-11T06:56:29;1.33;;;1.10;;
3329;SDS011;1677;49.576;10.990;2022-07-11T06:58:55;1.10;;;1.00;;
3329;SDS011;1677;49.576;10.990;2022-07-11T07:01:20;3.37;;;2.40;;
3329;SDS011;1677;49.576;10.990;2022-07-11T07:03:46;2.67;;;1.40;;
3329;SDS011;1677;49.576;10.990;2022-07-11T07:06:12;1.30;;;1.20;;
3329;SDS011;1677;49.576;10.990;2022-07-11T07:08:37;1.43;;;1.27;;
3329;SDS011;1677;49.576;10.990;2022-07-11T07:11:03;2.27;;;1.10;;
3329;SDS011;1677;49.576;10.990;2022-07-11T07:13:29;1.07;;;0.90;;
3329;SDS011;1677;49.576;10.990;2022-07-11T07:15:54;1.10;;;0.90;;
3329;SDS011;1677;49.576;10.990;2022-07-11T07:18:22;1.30;;;1.20;;
3329;SDS011;1677;49.576;10.990;2022-07-11T07:20:48;1.73;;;1.17;;
3329;SDS011;1677;49.576;10.990;2022-07-11T07:23:14;1.63;;;0.90;;
3329;SDS011;1677;49.576;10.990;2022-07-11T07:25:39;1.10;;;0.90;;
3329;SDS011;1677;49.576;10.990;2022-07-11T07:28:05;1.00;;;0.80;;
3329;SDS011;1677;49.576;10.990;2022-07-11T07:30:31;0.97;;;0.73;;
3329;SDS011;1677;49.576;10.990;2022-07-11T07:32:57;0.90;;;0.80;;
3329;SDS011;1677;49.576;10.990;2022-07-11T07:35:23;1.10;;;0.73;;
3329;SDS011;1677;49.576;10.990;2022-07-11T07:37:48;1.30;;;0.90;;
3329;SDS011;1677;49.576;10.990;2022-07-11T07:40:14;2.13;;;1.03;;
3329;SDS011;1677;49.576;10.990;2022-07-11T07:42:39;1.13;;;1.00;;
3329;SDS011;1677;49.576;10.990;2022-07-11T07:45:05;1.20;;;0.97;;
3329;SDS011;1677;49.576;10.990;2022-07-11T07:47:31;1.27;;;1.00;;
3329;SDS011;1677;49.576;10.990;2022-07-11T07:49:57;1.53;;;1.30;;
3329;SDS011;1677;49.576;10.990;2022-07-11T07:52:23;1.33;;;1.10;;
3329;SDS011;1677;49.576;10.990;2022-07-11T07:54:48;1.60;;;1.30;;
3329;SDS011;1677;49.576;10.990;2022-07-11T07:57:14;1.50;;;1.10;;
3329;SDS011;1677;49.576;10.990;2022-07-11T07:59:39;2.63;;;1.10;;
3329;SDS011;1677;49.576;10.990;2022-07-11T08:02:05;1.20;;;1.00;;
3329;SDS011;1677;49.576;10.990;2022-07-11T08:04:31;2.00;;;1.13;;
3329;SDS011;1677;49.576;10.990;2022-07-11T08:06:57;2.10;;;1.07;;
3329;SDS011;1677;49.576;10.990;2022-07-11T08:09:24;2.30;;;1.10;;
3329;SDS011;1677;49.576;10.990;2022-07-11T08:11:50;3.63;;;1.10;;
3329;SDS011;1677;49.576;10.990;2022-07-11T08:14:16;1.00;;;0.80;;
3329;SDS011;1677;49.576;10.990;2022-07-11T08:16:41;1.17;;;1.07;;
3329;SDS011;1677;49.576;10.990;2022-07-11T08:19:07;1.10;;;1.00;;
3329;SDS011;1677;49.576;10.990;2022-07-11T08:21:34;1.13;;;0.93;;
3329;SDS011;1677;49.576;10.990;2022-07-11T08:24:00;1.37;;;1.07;;
3329;SDS011;1677;49.576;10.990;2022-07-11T08:26:25;1.30;;;1.20;;
3329;SDS011;1677;49.576;10.990;2022-07-11T08:28:51;1.83;;;1.20;;
3329;SDS011;1677;49.576;10.990;2022-07-11T08:31:17;1.87;;;1.10;;
3329;SDS011;1677;49.576;10.990;2022-07-11T08:33:42;3.00;;;1.10;;
3329;SDS011;1677;49.576;10.990;2022-07-11T08:36:08;2.53;;;1.17;;
3329;SDS011;1677;49.576;10.990;2022-07-11T08:38:34;1.87;;;1.17;;
3329;SDS011;1677;49.576;10.990;2022-07-11T08:40:59;1.30;;;1.00;;
3329;SDS011;1677;49.576;10.990;2022-07-11T08:43:28;1.20;;;0.93;;
3329;SDS011;1677;49.576;10.990;2022-07-11T08:45:54;1.40;;;1.20;;
3329;SDS011;1677;49.576;10.990;2022-07-11T08:48:21;1.30;;;0.90;;
3329;SDS011;1677;49.576;10.990;2022-07-11T08:50:49;1.50;;;1.00;;
3329;SDS011;1677;49.576;10.990;2022-07-11T08:53:15;3.90;;;1.63;;
3329;SDS011;1677;49.576;10.990;2022-07-11T08:55:41;1.73;;;0.70;;
3329;SDS011;1677;49.576;10.990;2022-07-11T08:58:07;1.20;;;1.00;;
3329;SDS011;1677;49.576;10.990;2022-07-11T09:00:34;1.30;;;1.20;;
3329;SDS011;1677;49.576;10.990;2022-07-11T09:03:01;1.13;;;0.93;;
3329;SDS011;1677;49.576;10.990;2022-07-11T09:05:28;1.60;;;1.33;;
3329;SDS011;1677;49.576;10.990;2022-07-11T09:07:53;1.37;;;1.10;;
3329;SDS011;1677;49.576;10.990;2022-07-11T09:10:19;1.70;;;1.60;;
3329;SDS011;1677;49.576;10.990;2022-07-11T09:13:03;1.90;;;1.40;;
3329;SDS011;1677;49.576;10.990;2022-07-11T09:15:35;1.83;;;1.33;;
3329;SDS011;1677;49.576;10.990;2022-07-11T09:18:01;1.30;;;0.90;;
3329;SDS011;1677;49.576;10.990;2022-07-11T09:20:28;1.10;;;0.93;;
3329;SDS011;1677;49.576;10.990;2022-07-11T09:23:20;1.10;;;0.73;;
3329;SDS011;1677;49.576;10.990;2022-07-11T09:26:04;1.23;;;0.93;;
3329;SDS011;1677;49.576;10.990;2022-07-11T09:28:30;0.80;;;0.63;;
3329;SDS011;1677;49.576;10.990;2022-07-11T09:30:55;0.90;;;0.70;;
3329;SDS011;1677;49.576;10.990;2022-07-11T09:33:21;0.80;;;0.70;;
3329;SDS011;1677;49.576;10.990;2022-07-11T09:35:47;1.30;;;0.80;;
3329;SDS011;1677;49.576;10.990;2022-07-11T09:38:14;1.10;;;0.60;;
3329;SDS011;1677;49.576;10.990;2022-07-11T09:40:47;2.30;;;0.70;;
3329;SDS011;1677;49.576;10.990;2022-07-11T09:43:13;0.90;;;0.60;;
3329;SDS011;1677;49.576;10.990;2022-07-11T09:45:40;3.87;;;0.80;;
3329;SDS011;1677;49.576;10.990;2022-07-11T09:48:10;1.53;;;0.80;;
3329;SDS011;1677;49.576;10.990;2022-07-11T09:50:37;0.93;;;0.73;;
3329;SDS011;1677;49.576;10.990;2022-07-11T09:53:08;0.90;;;0.70;;
3329;SDS011;1677;49.576;10.990;2022-07-11T09:55:37;1.00;;;0.70;;
3329;SDS011;1677;49.576;10.990;2022-07-11T09:58:04;1.00;;;0.80;;
3329;SDS011;1677;49.576;10.990;2022-07-11T10:00:31;1.07;;;0.60;;
3329;SDS011;1677;49.576;10.990;2022-07-11T10:02:58;0.80;;;0.67;;
3329;SDS011;1677;49.576;10.990;2022-07-11T10:05:25;1.10;;;0.80;;
3329;SDS011;1677;49.576;10.990;2022-07-11T10:07:50;1.83;;;0.73;;
3329;SDS011;1677;49.576;10.990;2022-07-11T10:10:16;1.00;;;0.70;;
3329;SDS011;1677;49.576;10.990;2022-07-11T10:12:43;1.07;;;0.70;;
3329;SDS011;1677;49.576;10.990;2022-07-11T10:15:11;0.80;;;0.70;;
3329;SDS011;1677;49.576;10.990;2022-07-11T10:17:49;3.30;;;1.10;;
3329;SDS011;1677;49.576;10.990;2022-07-11T10:30:44;4.00;;;1.83;;
3329;SDS011;1677;49.576;10.990;2022-07-11T10:33:12;1.47;;;1.37;;
3329;SDS011;1677;49.576;10.990;2022-07-11T10:35:40;1.47;;;0.83;;
3329;SDS011;1677;49.576;10.990;2022-07-11T10:38:06;1.10;;;0.90;;
3329;SDS011;1677;49.576;10.990;2022-07-11T10:43:12;1.33;;;1.23;;
3329;SDS011;1677;49.576;10.990;2022-07-11T10:56:52;1.10;;;0.80;;
3329;SDS011;1677;49.576;10.990;2022-07-11T10:59:27;1.47;;;0.60;;
3329;SDS011;1677;49.576;10.990;2022-07-11T11:02:11;0.90;;;0.70;;
3329;SDS011;1677;49.576;10.990;2022-07-11T11:05:10;1.10;;;0.60;;
3329;SDS011;1677;49.576;10.990;2022-07-11T11:07:33;1.20;;;0.60;;
3329;SDS011;1677;49.576;10.990;2022-07-11T11:15:32;1.60;;;0.60;;
3329;SDS011;1677;49.576;10.990;2022-07-11T11:18:29;1.27;;;0.90;;
3329;SDS011;1677;49.576;10.990;2022-07-11T11:23:25;0.90;;;0.60;;
3329;SDS011;1677;49.576;10.990;2022-07-11T11:26:03;1.20;;;0.73;;
3329;SDS011;1677;49.576;10.990;2022-07-11T11:28:31;1.10;;;0.90;;
3329;SDS011;1677;49.576;10.990;2022-07-11T11:30:57;1.10;;;0.70;;
3329;SDS011;1677;49.576;10.990;2022-07-11T11:33:25;0.80;;;0.60;;
3329;SDS011;1677;49.576;10.990;2022-07-11T11:36:15;0.93;;;0.60;;
3329;SDS011;1677;49.576;10.990;2022-07-11T11:38:40;1.00;;;0.73;;
3329;SDS011;1677;49.576;10.990;2022-07-11T11:41:12;1.20;;;0.70;;
3329;SDS011;1677;49.576;10.990;2022-07-11T11:43:39;0.80;;;0.60;;
3329;SDS011;1677;49.576;10.990;2022-07-11T11:46:11;0.80;;;0.50;;
3329;SDS011;1677;49.576;10.990;2022-07-11T11:48:38;0.80;;;0.60;;
3329;SDS011;1677;49.576;10.990;2022-07-11T11:51:14;0.70;;;0.50;;
3329;SDS011;1677;49.576;10.990;2022-07-11T11:53:42;1.03;;;0.60;;
3329;SDS011;1677;49.576;10.990;2022-07-11T11:56:20;0.80;;;0.50;;
3329;SDS011;1677;49.576;10.990;2022-07-11T11:58:48;0.80;;;0.60;;
3329;SDS011;1677;49.576;10.990;2022-07-11T12:01:15;0.80;;;0.60;;
3329;SDS011;1677;49.576;10.990;2022-07-11T12:03:49;0.87;;;0.70;;
3329;SDS011;1677;49.576;10.990;2022-07-11T12:06:23;0.90;;;0.70;;
3329;SDS011;1677;49.576;10.990;2022-07-11T12:09:00;2.20;;;0.70;;
3329;SDS011;1677;49.576;10.990;2022-07-11T12:11:30;1.40;;;0.70;;
3329;SDS011;1677;49.576;10.990;2022-07-11T12:13:56;0.90;;;0.80;;
3329;SDS011;1677;49.576;10.990;2022-07-11T12:16:23;0.90;;;0.63;;
3329;SDS011;1677;49.576;10.990;2022-07-11T12:19:06;1.07;;;0.70;;
3329;SDS011;1677;49.576;10.990;2022-07-11T12:21:37;1.00;;;0.80;;
3329;SDS011;1677;49.576;10.990;2022-07-11T12:24:04;1.38;;;0.70;;
3329;SDS011;1677;49.576;10.990;2022-07-11T12:26:35;1.03;;;0.60;;
3329;SDS011;1677;49.576;10.990;2022-07-11T12:31:50;1.47;;;0.70;;
3329;SDS011;1677;49.576;10.990;2022-07-11T12:34:18;1.47;;;0.80;;
3329;SDS011;1677;49.576;10.990;2022-07-11T12:36:50;1.20;;;0.90;;
3329;SDS011;1677;49.576;10.990;2022-07-11T12:39:29;1.10;;;0.73;;
3329;SDS011;1677;49.576;10.990;2022-07-11T12:41:58;1.77;;;0.80;;
3329;SDS011;1677;49.576;10.990;2022-07-11T12:44:25;1.63;;;0.60;;
3329;SDS011;1677;49.576;10.990;2022-07-11T12:47:11;0.90;;;0.73;;
3329;SDS011;1677;49.576;10.990;2022-07-11T12:49:39;1.53;;;0.80;;
3329;SDS011;1677;49.576;10.990;2022-07-11T12:52:09;1.00;;;0.83;;
3329;SDS011;1677;49.576;10.990;2022-07-11T12:54:36;1.10;;;0.90;;
3329;SDS011;1677;49.576;10.990;2022-07-11T12:57:01;1.77;;;1.10;;
3329;SDS011;1677;49.576;10.990;2022-07-11T12:59:28;0.87;;;0.70;;
3329;SDS011;1677;49.576;10.990;2022-07-11T13:04:31;1.10;;;0.90;;
3329;SDS011;1677;49.576;10.990;2022-07-11T13:07:17;1.00;;;0.83;;
3329;SDS011;1677;49.576;10.990;2022-07-11T13:10:18;1.10;;;0.83;;
3329;SDS011;1677;49.576;10.990;2022-07-11T13:12:46;1.13;;;0.80;;
3329;SDS011;1677;49.576;10.990;2022-07-11T13:15:13;0.90;;;0.80;;
3329;SDS011;1677;49.576;10.990;2022-07-11T13:17:46;1.70;;;1.00;;
3329;SDS011;1677;49.576;10.990;2022-07-11T13:20:17;1.53;;;0.80;;
3329;SDS011;1677;49.576;10.990;2022-07-11T13:22:46;1.00;;;0.70;;
3329;SDS011;1677;49.576;10.990;2022-07-11T13:25:13;0.90;;;0.70;;
3329;SDS011;1677;49.576;10.990;2022-07-11T13:27:40;1.10;;;1.00;;
3329;SDS011;1677;49.576;10.990;2022-07-11T13:30:07;0.90;;;0.77;;
3329;SDS011;1677;49.576;10.990;2022-07-11T13:32:37;1.10;;;0.90;;
3329;SDS011;1677;49.576;10.990;2022-07-11T13:35:03;1.10;;;0.93;;
3329;SDS011;1677;49.576;10.990;2022-07-11T13:37:29;1.10;;;0.90;;
3329;SDS011;1677;49.576;10.990;2022-07-11T13:39:55;1.60;;;1.00;;
3329;SDS011;1677;49.576;10.990;2022-07-11T13:42:21;1.10;;;0.80;;
3329;SDS011;1677;49.576;10.990;2022-07-11T13:44:46;2.28;;;1.00;;
3329;SDS011;1677;49.576;10.990;2022-07-11T13:47:12;1.87;;;0.90;;
3329;SDS011;1677;49.576;10.990;2022-07-11T13:49:38;1.37;;;0.80;;
3329;SDS011;1677;49.576;10.990;2022-07-11T13:52:04;4.40;;;1.03;;
3329;SDS011;1677;49.576;10.990;2022-07-11T13:54:30;1.83;;;0.97;;
3329;SDS011;1677;49.576;10.990;2022-07-11T13:56:56;1.10;;;0.77;;
3329;SDS011;1677;49.576;10.990;2022-07-11T13:59:21;0.90;;;0.70;;
3329;SDS011;1677;49.576;10.990;2022-07-11T14:01:47;2.87;;;0.97;;
3329;SDS011;1677;49.576;10.990;2022-07-11T14:04:12;0.90;;;0.77;;
3329;SDS011;1677;49.576;10.990;2022-07-11T14:06:38;4.27;;;1.00;;
3329;SDS011;1677;49.576;10.990;2022-07-11T14:09:05;2.50;;;0.80;;
3329;SDS011;1677;49.576;10.990;2022-07-11T14:11:31;1.27;;;0.90;;
3329;SDS011;1677;49.576;10.990;2022-07-11T14:13:57;0.90;;;0.80;;
3329;SDS011;1677;49.576;10.990;2022-07-11T14:16:23;1.13;;;0.83;;
3329;SDS011;1677;49.576;10.990;2022-07-11T14:18:49;1.17;;;1.00;;
3329;SDS011;1677;49.576;10.990;2022-07-11T14:21:15;0.90;;;0.70;;
3329;SDS011;1677;49.576;10.990;2022-07-11T14:23:41;1.10;;;1.00;;
3329;SDS011;1677;49.576;10.990;2022-07-11T14:26:08;2.13;;;0.70;;
3329;SDS011;1677;49.576;10.990;2022-07-11T14:28:35;1.47;;;1.00;;
3329;SDS011;1677;49.576;10.990;2022-07-11T14:31:01;0.80;;;0.70;;
3329;SDS011;1677;49.576;10.990;2022-07-11T14:33:27;1.10;;;0.87;;
3329;SDS011;1677;49.576;10.990;2022-07-11T14:35:54;0.87;;;0.70;;
3329;SDS011;1677;49.576;10.990;2022-07-11T14:38:19;1.13;;;1.03;;
3329;SDS011;1677;49.576;10.990;2022-07-11T14:40:45;1.13;;;0.90;;
3329;SDS011;1677;49.576;10.990;2022-07-11T14:43:11;2.30;;;1.00;;
3329;SDS011;1677;49.576;10.990;2022-07-11T14:45:36;2.10;;;0.97;;
3329;SDS011;1677;49.576;10.990;2022-07-11T14:48:02;1.10;;;0.90;;
3329;SDS011;1677;49.576;10.990;2022-07-11T14:50:28;1.00;;;0.90;;
3329;SDS011;1677;49.576;10.990;2022-07-11T14:52:53;1.03;;;0.80;;
3329;SDS011;1677;49.576;10.990;2022-07-11T14:55:19;1.00;;;0.80;;
3329;SDS011;1677;49.576;10.990;2022-07-11T14:57:44;0.90;;;0.80;;
3329;SDS011;1677;49.576;10.990;2022-07-11T15:00:10;1.27;;;1.00;;
3329;SDS011;1677;49.576;10.990;2022-07-11T15:02:36;1.13;;;1.03;;
3329;SDS011;1677;49.576;10.990;2022-07-11T15:05:20;1.50;;;1.00;;
3329;SDS011;1677;49.576;10.990;2022-07-11T15:07:46;1.10;;;0.90;;
3329;SDS011;1677;49.576;10.990;2022-07-11T15:10:31;1.40;;;0.80;;
3329;SDS011;1677;49.576;10.990;2022-07-11T15:13:15;2.03;;;0.80;;
3329;SDS011;1677;49.576;10.990;2022-07-11T15:15:41;1.50;;;0.80;;
3329;SDS011;1677;49.576;10.990;2022-07-11T15:18:07;2.90;;;1.10;;
3329;SDS011;1677;49.576;10.990;2022-07-11T15:20:32;0.90;;;0.77;;
3329;SDS011;1677;49.576;10.990;2022-07-11T15:22:58;2.17;;;0.90;;
3329;SDS011;1677;49.576;10.990;2022-07-11T15:25:24;2.13;;;0.70;;
3329;SDS011;1677;49.576;10.990;2022-07-11T15:27:50;1.50;;;0.83;;
3329;SDS011;1677;49.576;10.990;2022-07-11T15:30:16;1.70;;;0.93;;
3329;SDS011;1677;49.576;10.990;2022-07-11T15:32:42;1.00;;;0.90;;
3329;SDS011;1677;49.576;10.990;2022-07-11T15:35:09;2.40;;;0.90;;
3329;SDS011;1677;49.576;10.990;2022-07-11T15:37:35;1.33;;;0.70;;
3329;SDS011;1677;49.576;10.990;2022-07-11T15:40:00;1.10;;;0.90;;